createdAt,value
2022-10-03T00:04:06.849Z,7.32
2022-10-03T00:10:10.889Z,7.18
2022-10-03T00:15:49.948Z,4.40
2022-10-03T00:21:21.860Z,4.75
2022-10-03T00:26:52.463Z,5.22
2022-10-03T00:32:35.832Z,6.30
2022-10-03T00:38:05.519Z,9.00
2022-10-03T00:43:51.845Z,6.85
2022-10-03T00:49:34.539Z,7.63
2022-10-03T00:55:16.541Z,7.18
2022-10-03T01:00:41.527Z,7.60
2022-10-03T01:06:32.668Z,10.85
2022-10-03T01:12:14.023Z,7.82
2022-10-03T01:17:48.408Z,7.30
2022-10-03T01:23:28.947Z,9.20
2022-10-03T01:29:18.960Z,12.27
2022-10-03T01:35:00.392Z,9.85
2022-10-03T01:40:37.741Z,9.07
2022-10-03T01:46:28.027Z,9.43
2022-10-03T01:52:18.647Z,8.98
2022-10-03T01:57:54.596Z,14.07
2022-10-03T02:03:45.906Z,9.73
2022-10-03T02:09:48.769Z,10.40
2022-10-03T02:15:17.201Z,12.07
2022-10-03T02:20:58.642Z,12.30
2022-10-03T02:26:26.780Z,12.82
2022-10-03T02:32:19.145Z,14.25
2022-10-03T02:38:02.515Z,14.95
2022-10-03T02:43:54.069Z,14.60
2022-10-03T02:49:41.703Z,13.90
2022-10-03T02:55:27.861Z,12.73
2022-10-03T03:01:20.130Z,18.42
2022-10-03T03:07:07.412Z,12.82
2022-10-03T03:12:42.779Z,13.40
2022-10-03T03:18:18.273Z,13.70
2022-10-03T03:24:06.009Z,12.85
2022-10-03T03:29:46.549Z,11.18
2022-10-03T03:35:29.070Z,10.82
2022-10-03T03:41:26.561Z,16.92
2022-10-03T03:47:01.384Z,17.83
2022-10-03T03:52:58.269Z,12.55
2022-10-03T03:58:45.131Z,12.63
2022-10-03T04:04:22.121Z,12.02
2022-10-03T04:10:03.099Z,12.82
2022-10-03T04:15:43.338Z,12.13
2022-10-03T04:21:20.818Z,10.80
2022-10-03T04:27:01.618Z,10.10
2022-10-03T04:32:46.581Z,11.77
2022-10-03T04:38:23.261Z,12.95
2022-10-03T04:43:58.612Z,11.50
2022-10-03T04:49:42.607Z,8.88
2022-10-03T04:55:27.756Z,16.17
2022-10-03T05:01:17.650Z,13.50
2022-10-03T05:06:52.310Z,10.63
2022-10-03T05:12:52.036Z,14.57
2022-10-03T05:18:15.600Z,11.05
2022-10-03T05:23:50.215Z,16.80
2022-10-03T05:29:18.249Z,13.60
2022-10-03T05:35:04.690Z,9.88
2022-10-03T05:40:30.077Z,14.00
2022-10-03T05:46:03.691Z,18.15
2022-10-03T05:51:56.372Z,22.77
2022-10-03T05:57:50.249Z,24.67
2022-10-03T06:03:59.347Z,31.88
2022-10-03T06:09:51.356Z,24.52
2022-10-03T06:15:19.287Z,26.52
2022-10-03T06:21:28.719Z,23.83
2022-10-03T06:27:11.489Z,19.80
2022-10-03T06:33:01.962Z,24.00
2022-10-03T06:39:01.022Z,25.92
2022-10-03T06:44:29.063Z,27.05
2022-10-03T06:49:57.342Z,26.45
2022-10-03T06:55:40.533Z,23.08
2022-10-03T07:01:11.269Z,23.73
2022-10-03T07:06:38.696Z,22.27
2022-10-03T07:12:21.865Z,24.13
2022-10-03T07:18:21.049Z,23.95
2022-10-03T07:24:03.080Z,22.05
2022-10-03T07:29:52.453Z,22.55
2022-10-03T07:36:09.816Z,22.65
2022-10-03T07:42:00.716Z,22.20
2022-10-03T07:47:49.989Z,26.60
2022-10-03T07:53:26.627Z,30.80
2022-10-03T07:58:56.002Z,25.17
2022-10-03T08:04:51.139Z,23.08
2022-10-03T08:10:47.439Z,25.70
2022-10-03T08:16:27.410Z,27.13
2022-10-03T08:22:06.108Z,25.38
2022-10-03T08:27:58.750Z,21.50
2022-10-03T08:33:39.239Z,21.27
2022-10-03T08:39:18.329Z,13.65
2022-10-03T08:45:02.916Z,14.55
2022-10-03T08:50:32.221Z,17.05
2022-10-03T08:56:07.744Z,15.07
2022-10-03T09:01:32.563Z,15.95
2022-10-03T09:07:26.684Z,20.48
2022-10-03T09:13:26.055Z,13.88
2022-10-03T09:19:29.364Z,16.25
2022-10-03T09:25:03.853Z,14.20
2022-10-03T09:30:42.340Z,17.25
2022-10-03T09:36:14.522Z,16.20
2022-10-03T09:41:59.079Z,14.43
2022-10-03T09:47:43.490Z,18.25
2022-10-03T09:53:27.906Z,14.27
2022-10-03T09:58:58.564Z,12.60
2022-10-03T10:04:43.380Z,13.60
2022-10-03T10:10:40.315Z,10.70
2022-10-03T10:16:36.268Z,11.68
2022-10-03T10:22:16.842Z,16.17
2022-10-03T10:28:21.210Z,12.27
2022-10-03T10:34:24.754Z,11.32
2022-10-03T10:40:24.811Z,10.63
2022-10-03T10:46:16.109Z,10.90
2022-10-03T10:51:46.709Z,10.27
2022-10-03T10:57:59.648Z,18.92
2022-10-03T11:03:59.701Z,14.75
2022-10-03T11:09:46.447Z,15.40
2022-10-03T11:15:37.983Z,11.05
2022-10-03T11:21:21.070Z,10.18
2022-10-03T11:27:20.193Z,14.63
2022-10-03T11:33:01.743Z,11.68
2022-10-03T11:38:30.006Z,11.20
2022-10-03T11:44:04.408Z,10.57
2022-10-03T11:49:47.813Z,13.50
2022-10-03T11:55:34.073Z,11.00
2022-10-03T12:01:24.072Z,11.77
2022-10-03T12:07:28.594Z,10.85
2022-10-03T12:12:54.931Z,11.35
2022-10-03T12:18:20.194Z,7.25
2022-10-03T12:23:54.738Z,11.18
2022-10-03T12:29:21.034Z,9.05
2022-10-03T12:34:46.649Z,12.68
2022-10-03T12:40:24.897Z,8.02
2022-10-03T12:45:58.956Z,6.57
2022-10-03T12:51:39.286Z,6.88
2022-10-03T12:57:27.974Z,12.38
2022-10-03T13:03:19.926Z,10.73
2022-10-03T13:09:19.393Z,11.77
2022-10-03T13:15:19.236Z,9.10
2022-10-03T13:20:45.533Z,11.82
2022-10-03T13:26:18.294Z,9.88
2022-10-03T13:31:55.123Z,8.65
2022-10-03T13:37:35.681Z,9.60
2022-10-03T13:43:01.835Z,7.38
2022-10-03T13:48:29.775Z,7.53
2022-10-03T13:54:06.831Z,13.90
2022-10-03T13:59:47.268Z,12.95
2022-10-03T14:05:26.024Z,6.78
2022-10-03T14:11:22.805Z,6.72
2022-10-03T14:16:57.362Z,6.95
2022-10-03T14:22:27.968Z,5.78
2022-10-03T14:28:19.304Z,7.10
2022-10-03T14:33:51.701Z,7.85
2022-10-03T14:39:36.745Z,6.80
2022-10-03T14:45:03.638Z,7.28
2022-10-03T14:50:29.099Z,8.65
2022-10-03T14:56:02.839Z,9.02
2022-10-03T15:01:28.381Z,8.50
2022-10-03T15:06:56.938Z,9.70
2022-10-03T15:12:24.557Z,7.13
2022-10-03T15:17:50.091Z,8.95
2022-10-03T15:23:33.215Z,6.28
2022-10-03T15:29:02.577Z,6.97
2022-10-03T15:34:31.767Z,7.32
2022-10-03T15:39:58.624Z,9.18
2022-10-03T15:45:32.457Z,5.35
2022-10-03T15:50:57.020Z,7.85
2022-10-03T15:56:28.032Z,10.68
2022-10-03T16:01:53.769Z,7.43
2022-10-03T16:07:29.838Z,8.13
2022-10-03T16:12:58.438Z,9.10
2022-10-03T16:18:44.565Z,8.02
2022-10-03T16:24:16.102Z,5.30
2022-10-03T16:29:41.572Z,7.80
2022-10-03T16:35:20.945Z,9.80
2022-10-03T16:40:50.253Z,5.82
2022-10-03T16:46:19.011Z,6.28
2022-10-03T16:52:03.290Z,9.00
2022-10-03T16:57:33.649Z,7.85
2022-10-03T17:02:56.942Z,11.38
2022-10-03T17:08:41.233Z,6.80
2022-10-03T17:14:07.108Z,6.20
2022-10-03T17:19:42.998Z,12.00
2022-10-03T17:25:26.076Z,9.60
2022-10-03T17:30:54.396Z,9.70
2022-10-03T17:37:13.424Z,9.02
2022-10-03T17:42:46.154Z,6.68
2022-10-03T17:48:31.021Z,11.18
2022-10-03T17:53:57.694Z,13.02
2022-10-03T17:59:26.147Z,10.15
2022-10-03T18:05:00.020Z,11.45
2022-10-03T18:10:26.520Z,13.25
2022-10-03T18:16:14.749Z,16.52
2022-10-03T18:22:02.116Z,16.90
2022-10-03T18:27:52.087Z,17.25
2022-10-03T18:33:20.154Z,13.05
2022-10-03T18:38:45.112Z,13.43
2022-10-03T18:44:14.115Z,11.25
2022-10-03T18:49:39.955Z,15.60
2022-10-03T18:55:16.221Z,15.20
2022-10-03T19:00:50.753Z,11.95
2022-10-03T19:06:22.229Z,16.27
2022-10-03T19:11:56.690Z,12.07
2022-10-03T19:17:33.457Z,15.23
2022-10-03T19:23:09.438Z,12.57
2022-10-03T19:28:46.737Z,9.55
2022-10-03T19:34:37.153Z,9.02
2022-10-03T19:39:59.159Z,16.00
2022-10-03T19:45:21.020Z,18.33
2022-10-03T19:50:42.772Z,12.20
2022-10-03T19:56:04.736Z,11.27
2022-10-03T20:01:26.929Z,12.80
2022-10-03T20:06:50.033Z,11.75
2022-10-03T20:12:14.094Z,10.88
2022-10-03T20:17:38.570Z,13.00
2022-10-03T20:23:06.783Z,13.30
2022-10-03T20:28:55.807Z,9.45
2022-10-03T20:34:23.933Z,11.77
2022-10-03T20:39:47.071Z,11.13
2022-10-03T20:45:22.257Z,15.52
2022-10-03T20:50:46.892Z,12.77
2022-10-03T20:56:12.721Z,17.08
2022-10-03T21:01:36.625Z,10.43
2022-10-03T21:07:12.627Z,15.53
2022-10-03T21:12:45.387Z,17.70
2022-10-03T21:18:16.818Z,14.15
2022-10-03T21:23:47.593Z,10.68
2022-10-03T21:29:31.000Z,13.80
2022-10-03T21:35:11.300Z,16.83
2022-10-03T21:40:33.015Z,12.85
2022-10-03T21:46:07.478Z,16.45
2022-10-03T21:51:44.403Z,18.48
2022-10-03T21:57:13.963Z,13.35
2022-10-03T22:02:56.566Z,18.20
2022-10-03T22:08:28.755Z,12.77
2022-10-03T22:14:05.442Z,14.25
2022-10-03T22:19:37.183Z,14.13
2022-10-03T22:25:20.720Z,16.15
2022-10-03T22:30:51.713Z,13.00
2022-10-03T22:36:13.548Z,13.25
2022-10-03T22:41:36.780Z,16.38
2022-10-03T22:47:04.033Z,13.35
2022-10-03T22:52:29.595Z,13.93
2022-10-03T22:57:52.755Z,13.75
2022-10-03T23:03:24.900Z,15.60
2022-10-03T23:09:10.942Z,14.93
2022-10-03T23:14:37.523Z,17.92
2022-10-03T23:20:18.873Z,18.65
2022-10-03T23:25:58.133Z,12.85
2022-10-03T23:31:55.549Z,12.37
2022-10-03T23:37:17.166Z,13.20
2022-10-03T23:42:45.995Z,12.00
2022-10-03T23:48:14.074Z,15.45
2022-10-03T23:53:39.347Z,14.32
2022-10-03T23:59:03.989Z,11.80
